createdAt,value
2023-03-07T00:01:26.568Z,8.87
2023-03-07T00:03:55.108Z,9.07
2023-03-07T00:06:25.531Z,8.87
2023-03-07T00:08:56.511Z,8.77
2023-03-07T00:11:25.103Z,9.73
2023-03-07T00:13:54.191Z,9.23
2023-03-07T00:16:24.827Z,9.07
2023-03-07T00:18:53.454Z,9.67
2023-03-07T00:21:24.889Z,9.70
2023-03-07T00:23:54.497Z,8.40
2023-03-07T00:26:25.076Z,8.37
2023-03-07T00:28:55.095Z,8.73
2023-03-07T00:31:24.434Z,9.70
2023-03-07T00:33:53.281Z,9.10
2023-03-07T00:36:23.109Z,9.10
2023-03-07T00:38:53.613Z,9.07
2023-03-07T00:41:24.039Z,7.77
2023-03-07T00:43:52.888Z,9.17
2023-03-07T00:46:24.304Z,8.90
2023-03-07T00:48:53.396Z,8.70
2023-03-07T00:51:23.617Z,9.30
2023-03-07T00:53:53.544Z,9.67
2023-03-07T00:56:24.304Z,9.63
2023-03-07T00:58:53.799Z,9.57
2023-03-07T01:01:24.879Z,9.17
2023-03-07T01:03:54.396Z,9.07
2023-03-07T01:06:26.057Z,9.53
2023-03-07T01:08:58.947Z,10.13
2023-03-07T01:11:27.787Z,9.73
2023-03-07T01:13:57.491Z,9.93
2023-03-07T01:16:28.746Z,9.10
2023-03-07T01:19:00.107Z,10.10
2023-03-07T01:21:30.664Z,9.77
2023-03-07T01:24:00.859Z,10.27
2023-03-07T01:26:31.614Z,10.60
2023-03-07T01:29:02.291Z,11.33
2023-03-07T01:31:32.637Z,10.60
2023-03-07T01:34:02.384Z,9.77
2023-03-07T01:36:33.371Z,10.10
2023-03-07T01:39:07.361Z,10.07
2023-03-07T01:41:37.509Z,9.00
2023-03-07T01:44:16.280Z,10.77
2023-03-07T01:46:53.164Z,10.10
2023-03-07T01:49:27.188Z,9.77
2023-03-07T01:52:04.263Z,10.30
2023-03-07T01:54:38.639Z,10.77
2023-03-07T01:57:07.784Z,10.47
2023-03-07T01:59:41.665Z,9.03
2023-03-07T02:02:14.249Z,10.33
2023-03-07T02:04:46.192Z,10.77
2023-03-07T02:07:15.221Z,10.27
2023-03-07T02:09:47.837Z,10.83
2023-03-07T02:12:16.807Z,10.80
2023-03-07T02:14:47.503Z,10.10
2023-03-07T02:17:15.818Z,10.23
2023-03-07T02:20:01.502Z,10.60
2023-03-07T02:22:30.554Z,10.23
2023-03-07T02:25:04.229Z,11.50
2023-03-07T02:27:37.559Z,10.30
2023-03-07T02:30:07.803Z,10.37
2023-03-07T02:32:36.065Z,10.00
2023-03-07T02:35:12.538Z,10.47
2023-03-07T02:37:42.156Z,10.80
2023-03-07T02:40:14.467Z,10.27
2023-03-07T02:42:45.414Z,9.57
2023-03-07T02:45:16.958Z,10.40
2023-03-07T02:47:46.414Z,10.30
2023-03-07T02:50:16.222Z,10.13
2023-03-07T02:52:44.810Z,11.07
2023-03-07T02:55:13.365Z,9.73
2023-03-07T02:57:43.036Z,9.67
2023-03-07T03:00:13.250Z,10.30
2023-03-07T03:02:41.556Z,9.50
2023-03-07T03:05:10.713Z,9.73
2023-03-07T03:07:39.209Z,10.37
2023-03-07T03:10:09.047Z,10.67
2023-03-07T03:12:37.271Z,9.43
2023-03-07T03:15:08.961Z,10.20
2023-03-07T03:17:37.500Z,9.80
2023-03-07T03:20:08.892Z,9.67
2023-03-07T03:22:37.134Z,9.87
2023-03-07T03:25:06.641Z,10.17
2023-03-07T03:27:35.006Z,10.17
2023-03-07T03:30:04.651Z,9.27
2023-03-07T03:32:34.486Z,8.77
2023-03-07T03:35:02.757Z,9.93
2023-03-07T03:37:31.626Z,10.00
2023-03-07T03:39:59.888Z,9.40
2023-03-07T03:42:28.168Z,9.67
2023-03-07T03:44:56.430Z,9.33
2023-03-07T03:47:24.666Z,9.67
2023-03-07T03:49:54.289Z,10.23
2023-03-07T03:52:23.478Z,10.10
2023-03-07T03:54:51.720Z,9.83
2023-03-07T03:57:20.681Z,9.43
2023-03-07T03:59:49.249Z,10.70
2023-03-07T04:02:17.652Z,9.63
2023-03-07T04:04:46.102Z,10.90
2023-03-07T04:07:15.692Z,9.77
2023-03-07T04:09:44.139Z,10.10
2023-03-07T04:12:12.378Z,10.73
2023-03-07T04:14:40.649Z,9.63
2023-03-07T04:17:08.843Z,10.53
2023-03-07T04:19:37.092Z,9.77
2023-03-07T04:22:05.608Z,10.10
2023-03-07T04:24:35.228Z,10.20
2023-03-07T04:27:03.460Z,9.00
2023-03-07T04:29:31.919Z,9.87
2023-03-07T04:32:00.261Z,10.30
2023-03-07T04:34:28.592Z,9.77
2023-03-07T04:36:56.804Z,10.40
2023-03-07T04:39:25.028Z,10.87
2023-03-07T04:41:54.634Z,10.43
2023-03-07T04:44:22.913Z,11.20
2023-03-07T04:46:51.136Z,10.33
2023-03-07T04:49:19.411Z,10.87
2023-03-07T04:51:47.657Z,10.40
2023-03-07T04:54:15.895Z,10.63
2023-03-07T04:56:44.238Z,10.80
2023-03-07T04:59:13.817Z,10.07
2023-03-07T05:01:42.179Z,11.50
2023-03-07T05:04:10.414Z,10.63
2023-03-07T05:06:38.723Z,10.17
2023-03-07T05:09:07.048Z,11.17
2023-03-07T05:11:35.315Z,11.30
2023-03-07T05:14:03.518Z,9.87
2023-03-07T05:16:33.608Z,10.47
2023-03-07T05:19:02.925Z,10.53
2023-03-07T05:21:32.655Z,10.60
2023-03-07T05:24:00.980Z,10.13
2023-03-07T05:26:29.188Z,11.20
2023-03-07T05:28:57.468Z,10.70
2023-03-07T05:31:26.329Z,10.70
2023-03-07T05:33:56.097Z,10.40
2023-03-07T05:36:24.749Z,10.87
2023-03-07T05:38:53.638Z,10.90
2023-03-07T05:41:21.892Z,10.83
2023-03-07T05:43:50.304Z,10.37
2023-03-07T05:46:18.645Z,10.63
2023-03-07T05:48:46.898Z,10.50
2023-03-07T05:51:16.669Z,10.87
2023-03-07T05:53:46.508Z,9.93
2023-03-07T05:56:15.107Z,9.47
2023-03-07T05:58:43.404Z,10.07
2023-03-07T06:01:11.611Z,9.03
2023-03-07T06:03:39.953Z,10.93
2023-03-07T06:06:09.181Z,10.67
2023-03-07T06:08:38.793Z,9.97
2023-03-07T06:11:07.358Z,13.23
2023-03-07T06:13:35.662Z,13.07
2023-03-07T06:16:04.064Z,12.03
2023-03-07T06:18:32.374Z,10.30
2023-03-07T06:21:03.293Z,10.50
2023-03-07T06:23:34.073Z,19.93
2023-03-07T06:26:04.789Z,19.57
2023-03-07T06:28:33.408Z,17.00
2023-03-07T06:31:02.124Z,13.07
2023-03-07T06:33:30.407Z,13.27
2023-03-07T06:35:58.651Z,10.77
2023-03-07T06:38:27.961Z,11.00
2023-03-07T06:40:59.309Z,10.80
2023-03-07T06:43:29.273Z,10.17
2023-03-07T06:45:57.786Z,9.93
2023-03-07T06:48:26.732Z,8.87
2023-03-07T06:50:54.970Z,11.20
2023-03-07T06:53:23.301Z,11.30
2023-03-07T06:55:52.715Z,13.40
2023-03-07T06:58:20.981Z,13.23
2023-03-07T07:00:50.572Z,12.17
2023-03-07T07:03:21.019Z,13.70
2023-03-07T07:05:49.317Z,11.40
2023-03-07T07:08:17.652Z,10.17
2023-03-07T07:10:46.024Z,8.70
2023-03-07T07:13:15.112Z,9.00
2023-03-07T07:15:43.364Z,8.97
2023-03-07T07:18:14.957Z,9.20
2023-03-07T07:20:43.272Z,9.47
2023-03-07T07:23:11.562Z,9.07
2023-03-07T07:25:40.233Z,8.93
2023-03-07T07:28:08.498Z,9.10
2023-03-07T07:30:36.768Z,9.17
2023-03-07T07:33:05.308Z,8.40
2023-03-07T07:35:35.085Z,8.67
2023-03-07T07:38:03.543Z,9.40
2023-03-07T07:40:31.888Z,8.73
2023-03-07T07:43:00.140Z,9.83
2023-03-07T07:45:28.488Z,10.03
2023-03-07T07:47:56.752Z,10.43
2023-03-07T07:50:25.553Z,9.20
2023-03-07T07:52:56.025Z,9.23
2023-03-07T07:55:25.238Z,8.73
2023-03-07T07:57:53.785Z,9.17
2023-03-07T08:00:22.804Z,9.80
2023-03-07T08:02:51.900Z,9.93
2023-03-07T08:05:21.704Z,9.63
2023-03-07T08:07:50.808Z,9.93
2023-03-07T08:10:21.793Z,9.40
2023-03-07T08:12:52.476Z,9.27
2023-03-07T08:15:22.353Z,9.20
2023-03-07T08:17:51.429Z,10.23
2023-03-07T08:20:22.378Z,8.93
2023-03-07T08:22:52.895Z,10.03
2023-03-07T08:25:25.170Z,8.53
2023-03-07T08:27:55.270Z,9.03
2023-03-07T08:30:24.703Z,9.47
2023-03-07T08:32:54.388Z,9.67
2023-03-07T08:35:23.101Z,8.70
2023-03-07T08:37:56.854Z,9.03
2023-03-07T08:40:27.360Z,9.53
2023-03-07T08:42:56.143Z,9.37
2023-03-07T08:45:24.827Z,9.00
2023-03-07T08:47:54.818Z,9.37
2023-03-07T08:50:24.472Z,8.93
2023-03-07T08:52:52.921Z,9.40
2023-03-07T08:55:21.392Z,9.23
2023-03-07T08:57:51.117Z,9.10
2023-03-07T09:00:20.828Z,8.80
2023-03-07T09:02:49.172Z,8.70
2023-03-07T09:05:17.631Z,9.37
2023-03-07T09:07:45.880Z,8.60
2023-03-07T09:10:14.185Z,9.20
2023-03-07T09:12:42.419Z,8.57
2023-03-07T09:15:12.747Z,8.67
2023-03-07T09:17:41.171Z,8.60
2023-03-07T09:20:11.814Z,9.57
2023-03-07T09:22:40.224Z,8.27
2023-03-07T09:25:09.514Z,8.77
2023-03-07T09:27:37.900Z,8.23
2023-03-07T09:30:08.148Z,8.20
2023-03-07T09:32:38.050Z,8.37
2023-03-07T09:35:07.446Z,7.37
2023-03-07T09:37:35.746Z,8.80
2023-03-07T09:40:07.243Z,7.40
2023-03-07T09:42:46.445Z,7.20
2023-03-07T09:45:34.870Z,8.27
2023-03-07T09:48:47.167Z,8.77
2023-03-07T09:51:20.075Z,8.07
2023-03-07T09:53:53.196Z,7.90
2023-03-07T09:56:26.516Z,8.50
2023-03-07T09:59:08.538Z,7.50
2023-03-07T10:01:43.955Z,7.27
2023-03-07T10:04:23.101Z,7.93
2023-03-07T10:06:58.285Z,7.97
2023-03-07T10:09:27.306Z,8.17
2023-03-07T10:12:28.482Z,7.90
2023-03-07T10:15:20.189Z,7.70
2023-03-07T10:18:09.126Z,7.60
2023-03-07T10:20:47.361Z,8.23
2023-03-07T10:23:32.555Z,8.13
2023-03-07T10:26:09.509Z,7.60
2023-03-07T12:35:05.703Z,6.63
2023-03-07T12:37:43.600Z,7.13
2023-03-07T12:40:21.457Z,7.10
2023-03-07T12:42:58.476Z,7.60
2023-03-07T12:45:29.825Z,7.20
2023-03-07T12:48:07.317Z,8.07
2023-03-07T12:50:46.772Z,15.60
2023-03-07T12:53:24.640Z,10.73
2023-03-07T12:55:58.564Z,8.23
2023-03-07T12:58:38.541Z,7.97
2023-03-07T13:01:15.468Z,7.80
2023-03-07T13:03:52.144Z,8.50
2023-03-07T13:06:23.933Z,8.10
2023-03-07T13:08:55.504Z,7.70
2023-03-07T13:11:27.654Z,7.90
2023-03-07T13:13:59.464Z,7.80
2023-03-07T13:16:43.528Z,8.50
2023-03-07T13:20:04.946Z,8.47
2023-03-07T13:23:14.534Z,7.93
2023-03-07T13:25:58.164Z,8.70
2023-03-07T13:28:51.237Z,8.57
2023-03-07T13:31:43.661Z,8.10
2023-03-07T13:34:51.675Z,8.27
2023-03-07T13:37:54.342Z,7.20
2023-03-07T13:40:58.513Z,8.83
2023-03-07T13:44:01.449Z,7.73
2023-03-07T13:46:58.719Z,6.60
2023-03-07T13:49:44.359Z,6.77
2023-03-07T13:52:39.150Z,6.90
2023-03-07T13:55:25.790Z,7.23
2023-03-07T13:57:59.257Z,6.80
2023-03-07T14:00:39.495Z,6.87
2023-03-07T14:03:27.934Z,7.70
2023-03-07T14:05:59.964Z,7.13
2023-03-07T14:08:35.544Z,7.20
2023-03-07T14:11:04.310Z,7.13
2023-03-07T14:14:16.462Z,8.27
2023-03-07T14:17:13.649Z,7.90
2023-03-07T14:19:56.417Z,7.50
2023-03-07T14:22:55.983Z,7.00
2023-03-07T14:25:26.414Z,7.93
2023-03-07T14:27:58.620Z,7.10
2023-03-07T14:30:31.481Z,7.33
2023-03-07T14:33:00.897Z,7.63
2023-03-07T14:35:42.680Z,6.63
2023-03-07T14:38:21.077Z,7.47
2023-03-07T14:41:22.075Z,7.70
2023-03-07T14:44:03.898Z,6.67
2023-03-07T14:46:43.025Z,7.23
2023-03-07T14:49:24.770Z,7.57
2023-03-07T14:51:53.149Z,7.17
2023-03-07T14:54:27.880Z,6.90
2023-03-07T14:56:56.436Z,7.67
2023-03-07T14:59:29.090Z,6.60
2023-03-07T15:02:00.113Z,6.67
2023-03-07T15:04:30.763Z,7.97
2023-03-07T15:07:01.302Z,6.70
2023-03-07T15:09:30.591Z,7.60
2023-03-07T15:12:06.044Z,7.33
2023-03-07T15:14:46.034Z,7.33
2023-03-07T15:17:20.413Z,7.50
2023-03-07T15:19:51.843Z,6.83
2023-03-07T15:22:25.689Z,7.67
2023-03-07T15:24:54.665Z,7.90
2023-03-07T15:27:26.664Z,7.53
2023-03-07T15:29:56.314Z,7.03
2023-03-07T15:32:36.086Z,7.73
2023-03-07T15:35:17.193Z,7.83
2023-03-07T15:37:56.924Z,7.27
2023-03-07T15:40:30.915Z,7.60
2023-03-07T15:43:15.261Z,7.10
2023-03-07T15:45:45.792Z,7.03
2023-03-07T15:48:28.119Z,7.30
2023-03-07T15:50:58.998Z,6.37
2023-03-07T15:53:31.327Z,7.27
2023-03-07T15:56:02.267Z,7.00
2023-03-07T15:58:33.754Z,6.80
2023-03-07T16:01:19.654Z,6.57
2023-03-07T16:03:54.344Z,7.40
2023-03-07T16:06:38.167Z,6.97
2023-03-07T16:09:07.192Z,7.20
2023-03-07T16:11:38.046Z,7.00
2023-03-07T16:14:06.554Z,7.07
2023-03-07T16:16:34.931Z,6.37
2023-03-07T16:19:04.583Z,6.93
2023-03-07T16:21:32.837Z,6.80
2023-03-07T16:24:01.124Z,7.67
2023-03-07T16:26:29.948Z,7.10
2023-03-07T16:28:58.264Z,7.33
2023-03-07T16:31:26.659Z,7.97
2023-03-07T16:33:55.938Z,7.27
2023-03-07T16:36:25.568Z,7.27
2023-03-07T16:38:53.839Z,6.90
2023-03-07T16:41:23.418Z,6.53
2023-03-07T16:43:55.585Z,7.20
2023-03-07T16:46:25.433Z,7.33
2023-03-07T16:48:53.710Z,7.90
2023-03-07T16:51:26.052Z,7.17
2023-03-07T16:53:56.719Z,7.77
2023-03-07T16:56:32.465Z,7.33
2023-03-07T16:59:01.760Z,7.03
2023-03-07T17:01:30.176Z,7.33
2023-03-07T17:03:58.465Z,7.27
2023-03-07T17:06:38.828Z,7.57
2023-03-07T17:09:09.492Z,7.77
2023-03-07T17:11:39.370Z,7.37
2023-03-07T17:14:10.127Z,7.67
2023-03-07T17:16:44.882Z,8.10
2023-03-07T17:19:28.525Z,7.33
2023-03-07T17:22:01.871Z,7.47
2023-03-07T17:24:31.226Z,7.43
2023-03-07T17:27:03.545Z,8.03
2023-03-07T17:29:37.344Z,7.53
2023-03-07T17:32:06.748Z,8.10
2023-03-07T17:34:37.093Z,8.00
2023-03-07T17:37:08.181Z,8.17
2023-03-07T17:39:36.728Z,8.67
2023-03-07T17:42:05.576Z,8.87
2023-03-07T17:44:34.777Z,8.73
2023-03-07T17:47:03.056Z,8.03
2023-03-07T17:49:35.431Z,8.40
2023-03-07T17:52:06.667Z,8.57
2023-03-07T17:54:35.112Z,8.93
2023-03-07T17:57:04.216Z,8.60
2023-03-07T17:59:33.515Z,8.83
2023-03-07T18:02:02.048Z,9.67
2023-03-07T18:04:31.391Z,9.30
2023-03-07T18:06:59.818Z,8.73
2023-03-07T18:09:29.531Z,9.00
2023-03-07T18:11:58.168Z,8.90
2023-03-07T18:14:26.707Z,9.03
2023-03-07T18:16:55.188Z,8.20
2023-03-07T18:19:27.053Z,7.47
2023-03-07T18:21:56.273Z,8.63
2023-03-07T18:24:29.976Z,8.43
2023-03-07T18:27:00.168Z,8.63
2023-03-07T18:29:29.521Z,7.97
2023-03-07T18:31:57.890Z,7.77
2023-03-07T18:34:26.269Z,7.57
2023-03-07T18:36:54.904Z,7.67
2023-03-07T18:39:24.888Z,7.50
2023-03-07T18:41:54.585Z,7.50
2023-03-07T18:44:22.892Z,8.00
2023-03-07T18:46:51.340Z,8.10
2023-03-07T18:49:19.718Z,6.83
2023-03-07T18:51:48.577Z,7.53
2023-03-07T18:54:16.972Z,6.57
2023-03-07T18:56:47.871Z,8.23
2023-03-07T18:59:18.560Z,7.53
2023-03-07T19:01:50.189Z,7.43
2023-03-07T19:04:19.072Z,7.20
2023-03-07T19:06:48.271Z,7.43
2023-03-07T19:09:18.752Z,7.27
2023-03-07T19:11:47.619Z,7.53
2023-03-07T19:14:17.352Z,7.37
2023-03-07T19:16:46.399Z,7.27
2023-03-07T19:19:14.956Z,7.60
2023-03-07T19:21:43.401Z,7.20
2023-03-07T19:24:13.102Z,7.00
2023-03-07T19:26:42.758Z,6.87
2023-03-07T19:29:12.665Z,7.10
2023-03-07T19:31:43.976Z,6.73
2023-03-07T19:34:13.029Z,7.47
2023-03-07T19:36:42.483Z,6.63
2023-03-07T19:39:15.123Z,6.60
2023-03-07T19:41:45.407Z,6.50
2023-03-07T19:44:13.737Z,6.70
2023-03-07T19:46:46.365Z,7.03
2023-03-07T19:49:15.557Z,6.57
2023-03-07T19:51:44.077Z,6.87
2023-03-07T19:54:15.016Z,6.27
2023-03-07T19:56:45.018Z,6.70
2023-03-07T19:59:14.709Z,6.77
2023-03-07T20:01:44.747Z,7.20
2023-03-07T20:04:13.697Z,6.73
2023-03-07T20:06:43.366Z,6.67
2023-03-07T20:09:13.068Z,7.20
2023-03-07T20:11:43.378Z,8.60
2023-03-07T20:14:13.253Z,8.83
2023-03-07T20:16:43.500Z,5.83
2023-03-07T20:19:11.933Z,6.90
2023-03-07T20:21:42.400Z,6.70
2023-03-07T20:24:10.902Z,8.13
2023-03-07T20:26:40.742Z,7.50
2023-03-07T20:29:10.819Z,8.87
2023-03-07T20:31:40.310Z,9.73
2023-03-07T20:34:10.125Z,8.43
2023-03-07T20:36:39.742Z,9.33
2023-03-07T20:39:14.343Z,9.87
2023-03-07T20:41:44.074Z,8.70
2023-03-07T20:44:15.186Z,8.27
2023-03-07T20:46:44.324Z,7.90
2023-03-07T20:49:16.340Z,7.80
2023-03-07T20:51:44.896Z,7.60
2023-03-07T20:54:15.600Z,7.93
2023-03-07T20:56:45.634Z,7.67
2023-03-07T20:59:16.434Z,8.00
2023-03-07T21:01:45.378Z,8.47
2023-03-07T21:04:18.472Z,8.40
2023-03-07T21:06:48.586Z,9.23
2023-03-07T21:09:18.888Z,8.73
2023-03-07T21:11:49.121Z,8.13
2023-03-07T21:14:19.343Z,8.73
2023-03-07T21:16:47.857Z,8.53
2023-03-07T21:19:17.581Z,7.60
2023-03-07T21:21:46.249Z,10.52
2023-03-07T21:24:15.608Z,9.13
2023-03-07T21:26:44.145Z,7.90
2023-03-07T21:29:13.908Z,9.03
2023-03-07T21:31:42.343Z,9.83
2023-03-07T21:34:15.166Z,9.20
2023-03-07T21:36:46.038Z,10.17
2023-03-07T21:39:14.447Z,9.00
2023-03-07T21:41:42.739Z,8.93
2023-03-07T21:44:11.655Z,8.53
2023-03-07T21:46:39.941Z,6.90
2023-03-07T21:49:08.496Z,7.60
2023-03-07T21:51:36.732Z,6.60
2023-03-07T21:54:06.634Z,7.17
2023-03-07T21:56:34.940Z,6.00
2023-03-07T21:59:03.265Z,6.10
2023-03-07T22:01:31.625Z,6.67
2023-03-07T22:04:01.094Z,6.00
2023-03-07T22:06:29.924Z,5.57
2023-03-07T22:08:59.625Z,5.70
2023-03-07T22:11:29.264Z,5.40
2023-03-07T22:13:57.578Z,5.70
2023-03-07T22:16:25.942Z,5.70
2023-03-07T22:18:56.323Z,6.27
2023-03-07T22:21:26.608Z,5.70
2023-03-07T22:23:57.688Z,6.17
2023-03-07T22:26:29.062Z,5.57
2023-03-07T22:28:57.573Z,6.13
2023-03-07T22:31:26.871Z,5.77
2023-03-07T22:33:55.286Z,5.63
2023-03-07T22:36:23.555Z,5.37
2023-03-07T22:38:56.270Z,5.40
2023-03-07T22:41:26.501Z,5.67
2023-03-07T22:43:56.204Z,5.20
2023-03-07T22:46:24.788Z,6.37
2023-03-07T22:48:54.752Z,5.40
2023-03-07T22:51:24.761Z,5.47
2023-03-07T22:53:53.604Z,5.77
2023-03-07T22:56:24.291Z,5.73
2023-03-07T22:58:52.767Z,5.70
2023-03-07T23:01:25.099Z,6.13
2023-03-07T23:03:55.550Z,7.20
2023-03-07T23:06:27.018Z,6.90
2023-03-07T23:08:55.607Z,6.13
2023-03-07T23:11:25.829Z,6.93
2023-03-07T23:13:54.755Z,6.40
2023-03-07T23:16:26.763Z,7.10
2023-03-07T23:18:58.334Z,7.33
2023-03-07T23:21:30.068Z,6.57
2023-03-07T23:23:59.427Z,6.30
2023-03-07T23:26:30.125Z,6.43
2023-03-07T23:28:58.636Z,8.20
2023-03-07T23:31:30.160Z,7.47
2023-03-07T23:34:00.887Z,7.60
2023-03-07T23:36:31.281Z,7.20
2023-03-07T23:39:00.868Z,8.43
2023-03-07T23:41:29.538Z,7.07
2023-03-07T23:44:00.208Z,7.77
2023-03-07T23:46:30.857Z,7.20
2023-03-07T23:48:59.730Z,7.60
2023-03-07T23:51:28.134Z,8.13
2023-03-07T23:53:56.528Z,7.40
2023-03-07T23:56:24.796Z,7.57
2023-03-07T23:58:53.817Z,7.33
